createdAt,value
2022-10-26T00:01:13.039Z,24.60
2022-10-26T00:03:20.259Z,24.70
2022-10-26T00:05:27.188Z,24.70
2022-10-26T00:07:34.125Z,24.80
2022-10-26T00:09:40.650Z,24.80
2022-10-26T00:11:47.473Z,24.80
2022-10-26T00:13:54.103Z,24.90
2022-10-26T00:18:13.381Z,25.00
2022-10-26T00:20:19.942Z,25.00
2022-10-26T00:22:26.453Z,25.10
2022-10-26T00:24:32.931Z,25.10
2022-10-26T00:26:39.373Z,25.20
2022-10-26T00:28:45.896Z,25.30
2022-10-26T00:30:52.379Z,25.30
2022-10-26T00:32:59.180Z,25.40
2022-10-26T00:35:21.196Z,25.40
2022-10-26T00:37:30.908Z,25.50
2022-10-26T00:39:37.407Z,25.60
2022-10-26T00:41:44.353Z,25.60
2022-10-26T00:43:51.059Z,25.70
2022-10-26T00:46:00.139Z,25.80
2022-10-26T00:48:10.221Z,25.80
2022-10-26T00:50:23.490Z,25.90
2022-10-26T00:52:31.806Z,25.90
2022-10-26T00:54:38.387Z,26.00
2022-10-26T00:56:45.417Z,26.10
2022-10-26T00:58:52.381Z,26.10
2022-10-26T01:00:59.716Z,26.20
2022-10-26T01:03:09.264Z,26.20
2022-10-26T01:05:18.435Z,26.30
2022-10-26T01:07:25.550Z,26.40
2022-10-26T01:09:32.647Z,26.40
2022-10-26T01:11:39.087Z,26.50
2022-10-26T01:13:47.303Z,26.50
2022-10-26T01:16:01.516Z,26.60
2022-10-26T01:18:13.793Z,26.60
2022-10-26T01:20:56.841Z,26.70
2022-10-26T01:23:10.836Z,26.70
2022-10-26T01:25:30.987Z,26.80
2022-10-26T01:27:39.116Z,26.80
2022-10-26T01:30:06.121Z,26.90
2022-10-26T01:32:17.356Z,27.00
2022-10-26T01:34:28.513Z,27.00
2022-10-26T01:36:41.323Z,27.10
2022-10-26T01:38:56.299Z,27.10
2022-10-26T01:41:09.285Z,27.20
2022-10-26T01:43:18.546Z,27.20
2022-10-26T01:45:25.721Z,27.20
2022-10-26T01:47:36.006Z,27.20
2022-10-26T01:49:46.666Z,27.20
2022-10-26T01:51:53.597Z,27.30
2022-10-26T01:54:02.185Z,27.30
2022-10-26T01:56:14.864Z,27.30
2022-10-26T01:58:45.221Z,27.40
2022-10-26T02:01:01.136Z,27.40
2022-10-26T02:03:21.745Z,27.40
2022-10-26T02:05:49.840Z,27.40
2022-10-26T02:08:05.916Z,27.50
2022-10-26T02:10:24.669Z,27.60
2022-10-26T02:12:39.934Z,27.60
2022-10-26T02:14:52.861Z,27.60
2022-10-26T02:17:02.975Z,27.70
2022-10-26T02:19:21.325Z,27.70
2022-10-26T02:21:32.642Z,27.80
2022-10-26T02:23:42.736Z,27.80
2022-10-26T02:25:53.345Z,27.90
2022-10-26T02:28:04.358Z,27.90
2022-10-26T02:30:12.997Z,28.00
2022-10-26T02:32:20.870Z,28.00
2022-10-26T02:34:31.428Z,28.10
2022-10-26T02:36:41.871Z,28.20
2022-10-26T02:38:49.985Z,28.30
2022-10-26T02:40:59.727Z,28.40
2022-10-26T02:43:09.485Z,28.50
2022-10-26T02:45:19.813Z,28.60
2022-10-26T02:47:27.189Z,28.70
2022-10-26T02:49:35.583Z,28.70
2022-10-26T02:53:59.921Z,28.90
2022-10-26T02:56:12.947Z,29.00
2022-10-26T02:58:25.139Z,29.00
2022-10-26T03:00:33.821Z,29.00
2022-10-26T03:02:42.438Z,29.10
2022-10-26T03:04:54.581Z,29.10
2022-10-26T03:07:01.063Z,29.20
2022-10-26T03:09:07.999Z,29.30
2022-10-26T03:11:14.437Z,29.40
2022-10-26T03:13:21.144Z,29.50
2022-10-26T03:15:27.581Z,29.60
2022-10-26T03:17:34.480Z,29.70
2022-10-26T03:19:40.927Z,29.70
2022-10-26T03:21:49.037Z,29.70
2022-10-26T03:23:55.768Z,29.70
2022-10-26T03:26:02.668Z,29.70
2022-10-26T03:28:10.701Z,29.60
2022-10-26T03:30:17.267Z,29.60
2022-10-26T03:32:24.220Z,29.60
2022-10-26T03:34:30.651Z,29.70
2022-10-26T03:36:37.353Z,29.80
2022-10-26T03:38:45.528Z,29.70
2022-10-26T03:40:51.976Z,29.80
2022-10-26T03:42:58.697Z,29.80
2022-10-26T03:45:05.159Z,29.90
2022-10-26T03:47:11.925Z,30.00
2022-10-26T03:49:18.390Z,30.20
2022-10-26T03:51:25.162Z,30.30
2022-10-26T03:53:31.616Z,30.40
2022-10-26T03:55:39.719Z,30.50
2022-10-26T03:57:46.407Z,30.60
2022-10-26T03:59:52.872Z,30.60
2022-10-26T04:01:59.832Z,30.70
2022-10-26T04:04:06.391Z,30.80
2022-10-26T04:06:13.153Z,30.80
2022-10-26T04:08:19.875Z,31.00
2022-10-26T04:10:26.753Z,31.00
2022-10-26T04:12:34.907Z,31.00
2022-10-26T04:14:41.383Z,31.10
2022-10-26T04:16:47.907Z,31.20
2022-10-26T04:18:54.360Z,31.20
2022-10-26T04:21:04.671Z,31.10
2022-10-26T04:23:13.862Z,30.90
2022-10-26T04:25:20.472Z,31.00
2022-10-26T04:27:28.337Z,31.00
2022-10-26T04:29:36.496Z,31.00
2022-10-26T04:33:50.517Z,31.10
2022-10-26T04:36:01.650Z,31.00
2022-10-26T04:38:10.145Z,31.00
2022-10-26T04:40:16.688Z,31.00
2022-10-26T04:42:23.222Z,31.00
2022-10-26T04:44:29.694Z,31.10
2022-10-26T04:46:38.141Z,31.10
2022-10-26T04:48:44.605Z,31.00
2022-10-26T04:50:51.388Z,30.90
2022-10-26T04:52:57.833Z,30.70
2022-10-26T04:55:06.896Z,30.70
2022-10-26T04:57:13.422Z,30.60
2022-10-26T04:59:20.291Z,30.60
2022-10-26T05:01:27.139Z,30.80
2022-10-26T05:03:35.363Z,30.90
2022-10-26T05:05:41.826Z,31.10
2022-10-26T05:07:56.174Z,31.20
2022-10-26T05:10:02.743Z,31.10
2022-10-26T05:12:09.393Z,31.00
2022-10-26T05:14:15.906Z,31.10
2022-10-26T05:16:22.384Z,31.10
2022-10-26T05:18:29.186Z,31.10
2022-10-26T05:20:39.107Z,31.20
2022-10-26T05:22:45.831Z,31.10
2022-10-26T05:24:52.294Z,31.00
2022-10-26T05:26:58.836Z,30.80
2022-10-26T05:29:05.420Z,30.70
2022-10-26T05:31:11.892Z,30.60
2022-10-26T05:33:18.792Z,30.50
2022-10-26T05:35:25.271Z,30.50
2022-10-26T05:37:34.199Z,30.40
2022-10-26T05:39:40.698Z,30.40
2022-10-26T05:41:47.176Z,30.50
2022-10-26T05:43:53.876Z,30.50
2022-10-26T05:46:00.316Z,30.70
2022-10-26T05:48:07.509Z,30.80
2022-10-26T05:50:15.144Z,30.90
2022-10-26T05:52:21.655Z,31.00
2022-10-26T05:54:29.787Z,31.10
2022-10-26T05:56:41.197Z,31.00
2022-10-26T05:58:48.289Z,31.00
2022-10-26T06:01:12.361Z,30.70
2022-10-26T06:03:28.058Z,30.50
2022-10-26T06:05:40.244Z,30.30
2022-10-26T06:07:47.908Z,30.20
2022-10-26T06:09:56.943Z,30.00
2022-10-26T06:12:04.436Z,30.00
2022-10-26T06:14:11.920Z,29.90
2022-10-26T06:16:32.934Z,29.90
2022-10-26T06:18:47.707Z,29.90
2022-10-26T06:21:03.551Z,29.90
2022-10-26T06:23:27.515Z,29.90
2022-10-26T06:25:49.180Z,30.10
2022-10-26T06:28:04.158Z,30.40
2022-10-26T06:30:13.486Z,30.40
2022-10-26T06:32:20.580Z,30.40
2022-10-26T06:34:30.683Z,30.40
2022-10-26T06:36:37.687Z,30.40
2022-10-26T06:38:47.298Z,30.30
2022-10-26T06:40:59.041Z,30.30
2022-10-26T06:43:05.572Z,30.30
2022-10-26T06:45:17.143Z,30.20
2022-10-26T06:47:28.038Z,30.20
2022-10-26T06:49:39.301Z,30.20
2022-10-26T06:51:50.138Z,30.20
2022-10-26T06:54:02.632Z,30.20
2022-10-26T06:56:14.061Z,30.20
2022-10-26T06:58:23.296Z,30.20
2022-10-26T07:02:41.994Z,30.20
2022-10-26T07:04:49.124Z,30.30
2022-10-26T07:06:57.898Z,30.10
2022-10-26T07:09:04.410Z,30.00
2022-10-26T07:11:13.094Z,30.00
2022-10-26T07:13:19.577Z,29.90
2022-10-26T07:15:26.110Z,29.90
2022-10-26T07:17:33.113Z,29.80
2022-10-26T07:19:41.387Z,29.80
2022-10-26T07:21:47.886Z,29.80
2022-10-26T07:23:57.890Z,29.80
2022-10-26T07:26:04.522Z,29.80
2022-10-26T07:28:13.613Z,29.90
2022-10-26T07:30:20.497Z,30.10
2022-10-26T07:32:27.076Z,30.20
2022-10-26T07:34:33.535Z,30.40
2022-10-26T07:36:40.436Z,30.60
2022-10-26T07:38:46.911Z,30.80
2022-10-26T07:40:55.210Z,31.00
2022-10-26T07:43:02.764Z,31.00
2022-10-26T07:45:12.053Z,30.90
2022-10-26T07:47:18.784Z,30.80
2022-10-26T07:49:27.621Z,30.70
2022-10-26T07:51:34.488Z,30.60
2022-10-26T07:53:40.982Z,30.30
2022-10-26T07:55:55.029Z,30.20
2022-10-26T07:58:01.886Z,30.00
2022-10-26T08:00:12.660Z,30.00
2022-10-26T08:02:19.159Z,29.90
2022-10-26T08:04:25.643Z,29.80
2022-10-26T08:06:32.286Z,29.70
2022-10-26T08:08:40.646Z,29.60
2022-10-26T08:10:50.390Z,29.50
2022-10-26T08:12:56.904Z,29.50
2022-10-26T08:15:03.414Z,29.40
2022-10-26T08:17:14.242Z,29.40
2022-10-26T08:19:21.212Z,29.40
2022-10-26T08:21:36.522Z,29.30
2022-10-26T08:23:46.419Z,29.30
2022-10-26T08:25:52.913Z,29.30
2022-10-26T08:28:03.434Z,29.40
2022-10-26T08:30:10.729Z,29.40
2022-10-26T08:32:19.157Z,29.40
2022-10-26T08:34:25.661Z,29.50
2022-10-26T08:36:32.174Z,29.50
2022-10-26T08:38:38.994Z,29.50
2022-10-26T08:40:47.039Z,29.50
2022-10-26T08:42:56.270Z,29.50
2022-10-26T08:45:06.355Z,29.50
2022-10-26T08:47:20.792Z,29.40
2022-10-26T08:49:30.213Z,29.50
2022-10-26T08:51:39.616Z,29.50
2022-10-26T08:53:51.302Z,29.40
2022-10-26T08:56:02.639Z,29.40
2022-10-26T08:58:13.807Z,29.40
2022-10-26T09:00:23.668Z,29.30
2022-10-26T09:02:32.114Z,29.30
2022-10-26T09:04:39.707Z,29.20
2022-10-26T09:06:58.460Z,29.10
2022-10-26T09:09:10.201Z,28.60
2022-10-26T09:11:21.666Z,28.00
2022-10-26T09:13:38.394Z,27.50
2022-10-26T09:15:58.915Z,27.10
2022-10-26T09:18:19.136Z,26.90
2022-10-26T09:21:00.704Z,26.80
2022-10-26T09:23:19.189Z,26.80
2022-10-26T09:25:27.031Z,26.70
2022-10-26T09:27:39.698Z,26.80
2022-10-26T09:29:46.810Z,26.80
2022-10-26T09:31:54.459Z,26.90
2022-10-26T09:34:08.220Z,26.90
2022-10-26T09:36:21.326Z,26.90
2022-10-26T09:38:32.109Z,26.90
2022-10-26T09:40:45.367Z,26.90
2022-10-26T09:42:59.043Z,26.90
2022-10-26T09:45:13.718Z,26.90
2022-10-26T09:47:34.543Z,27.00
2022-10-26T09:49:49.537Z,27.00
2022-10-26T09:51:56.028Z,27.00
2022-10-26T09:54:04.107Z,27.00
2022-10-26T09:56:12.683Z,27.00
2022-10-26T09:58:27.321Z,27.00
2022-10-26T10:02:46.324Z,27.00
2022-10-26T10:04:54.762Z,27.00
2022-10-26T10:07:16.741Z,27.00
2022-10-26T10:09:24.647Z,27.00
2022-10-26T10:11:41.896Z,26.90
2022-10-26T10:13:49.570Z,26.90
2022-10-26T10:15:58.145Z,26.80
2022-10-26T10:18:04.622Z,26.80
2022-10-26T10:20:14.556Z,26.70
2022-10-26T10:22:24.518Z,26.70
2022-10-26T10:24:33.455Z,26.70
2022-10-26T10:27:00.635Z,26.70
2022-10-26T10:29:19.261Z,26.70
2022-10-26T10:31:31.822Z,26.70
2022-10-26T10:33:40.765Z,26.60
2022-10-26T10:35:53.641Z,26.50
2022-10-26T10:38:00.667Z,26.50
2022-10-26T10:40:10.069Z,26.60
2022-10-26T10:42:23.786Z,26.60
2022-10-26T10:44:32.676Z,26.60
2022-10-26T10:46:40.395Z,26.60
2022-10-26T10:48:51.231Z,26.50
2022-10-26T10:51:02.055Z,26.60
2022-10-26T10:53:20.309Z,26.50
2022-10-26T10:55:26.890Z,26.50
2022-10-26T10:57:42.617Z,26.50
2022-10-26T11:00:03.939Z,26.40
2022-10-26T11:02:39.838Z,26.40
2022-10-26T11:05:07.349Z,26.40
2022-10-26T11:07:17.908Z,26.40
2022-10-26T11:09:30.130Z,26.40
2022-10-26T11:11:44.716Z,26.40
2022-10-26T11:13:59.862Z,26.40
2022-10-26T11:16:09.833Z,26.40
2022-10-26T11:18:21.783Z,26.40
2022-10-26T11:20:31.186Z,26.50
2022-10-26T11:22:43.526Z,26.50
2022-10-26T11:24:57.437Z,26.40
2022-10-26T11:27:08.821Z,26.40
2022-10-26T11:29:27.831Z,26.40
2022-10-26T11:31:39.837Z,26.40
2022-10-26T11:33:50.820Z,26.40
2022-10-26T11:36:02.661Z,26.40
2022-10-26T11:38:13.632Z,26.50
2022-10-26T11:40:32.585Z,26.50
2022-10-26T11:42:44.651Z,26.60
2022-10-26T11:44:57.181Z,26.60
2022-10-26T11:47:09.339Z,26.60
2022-10-26T11:49:22.028Z,26.70
2022-10-26T11:51:42.309Z,26.70
2022-10-26T11:53:51.849Z,26.70
2022-10-26T11:55:59.406Z,26.70
2022-10-26T11:58:06.890Z,26.70
2022-10-26T12:00:21.105Z,26.70
2022-10-26T12:02:28.669Z,26.70
2022-10-26T12:04:38.755Z,26.70
2022-10-26T12:06:46.124Z,26.70
2022-10-26T12:09:00.886Z,26.60
2022-10-26T12:11:16.457Z,26.60
2022-10-26T12:13:32.494Z,26.60
2022-10-26T12:16:03.642Z,26.60
2022-10-26T12:18:20.325Z,26.60
2022-10-26T12:21:03.438Z,26.50
2022-10-26T12:23:19.005Z,26.50
2022-10-26T12:25:36.430Z,26.50
2022-10-26T12:27:57.565Z,26.50
2022-10-26T12:30:28.935Z,26.50
2022-10-26T12:32:53.931Z,26.50
2022-10-26T12:35:07.030Z,26.60
2022-10-26T12:37:32.040Z,26.60
2022-10-26T12:39:39.935Z,26.50
2022-10-26T12:42:00.362Z,26.50
2022-10-26T12:44:34.438Z,26.50
2022-10-26T12:46:48.998Z,26.50
2022-10-26T12:48:57.096Z,26.50
2022-10-26T12:51:42.407Z,26.50
2022-10-26T12:53:55.956Z,26.50
2022-10-26T12:56:12.152Z,26.50
2022-10-26T12:59:04.880Z,26.40
2022-10-26T13:02:07.714Z,26.40
2022-10-26T13:04:44.300Z,26.40
2022-10-26T13:07:15.693Z,26.40
2022-10-26T13:09:25.221Z,26.40
2022-10-26T13:11:35.867Z,26.40
2022-10-26T13:13:45.376Z,26.40
2022-10-26T13:15:58.301Z,26.40
2022-10-26T13:18:11.559Z,26.50
2022-10-26T13:20:21.258Z,26.50
2022-10-26T13:22:28.530Z,26.50
2022-10-26T13:27:21.150Z,26.50
2022-10-26T13:29:33.999Z,26.50
2022-10-26T13:31:59.332Z,26.50
2022-10-26T13:34:13.111Z,26.50
2022-10-26T13:36:39.389Z,26.40
2022-10-26T13:38:48.014Z,26.40
2022-10-26T13:41:08.886Z,26.40
2022-10-26T13:43:23.030Z,26.40
2022-10-26T13:45:33.311Z,26.40
2022-10-26T13:47:47.782Z,26.40
2022-10-26T13:49:57.428Z,26.40
2022-10-26T13:52:06.626Z,26.40
2022-10-26T13:54:24.501Z,26.30
2022-10-26T13:56:36.047Z,26.30
2022-10-26T13:58:45.672Z,26.40
2022-10-26T14:01:08.067Z,26.30
2022-10-26T14:03:24.675Z,26.30
2022-10-26T14:05:31.202Z,26.30
2022-10-26T14:09:56.692Z,26.30
2022-10-26T14:12:04.786Z,26.20
2022-10-26T14:14:18.749Z,26.20
2022-10-26T14:16:32.150Z,26.10
2022-10-26T14:18:39.774Z,26.10
2022-10-26T14:20:53.529Z,26.10
2022-10-26T14:23:00.529Z,26.10
2022-10-26T14:25:26.765Z,26.10
2022-10-26T14:27:44.488Z,26.10
2022-10-26T14:30:16.732Z,26.00
2022-10-26T14:32:29.370Z,26.00
2022-10-26T14:34:35.814Z,25.90
2022-10-26T14:36:46.895Z,26.00
2022-10-26T14:39:00.339Z,26.00
2022-10-26T14:41:08.157Z,25.90
2022-10-26T14:43:22.227Z,26.00
2022-10-26T14:45:49.764Z,26.00
2022-10-26T14:48:00.060Z,26.00
2022-10-26T14:50:07.135Z,26.00
2022-10-26T14:52:27.665Z,26.00
2022-10-26T14:54:37.014Z,25.90
2022-10-26T14:56:45.125Z,25.90
2022-10-26T14:58:51.661Z,25.90
2022-10-26T15:01:30.457Z,25.90
2022-10-26T15:03:43.653Z,25.90
2022-10-26T15:05:50.529Z,25.90
2022-10-26T15:07:57.659Z,26.00
2022-10-26T15:10:04.142Z,25.90
2022-10-26T15:12:21.123Z,26.00
2022-10-26T15:14:27.894Z,26.00
2022-10-26T15:16:36.982Z,26.00
2022-10-26T15:18:46.087Z,25.90
2022-10-26T15:20:53.830Z,25.90
2022-10-26T15:23:01.993Z,25.90
2022-10-26T15:25:09.758Z,25.90
2022-10-26T15:27:18.575Z,25.90
2022-10-26T15:29:42.824Z,25.90
2022-10-26T15:31:49.567Z,25.90
2022-10-26T15:36:30.004Z,25.90
2022-10-26T15:38:36.786Z,25.80
2022-10-26T15:40:46.591Z,25.80
2022-10-26T15:42:54.816Z,25.80
2022-10-26T15:45:02.103Z,25.80
2022-10-26T15:47:09.040Z,25.80
2022-10-26T15:49:20.640Z,25.80
2022-10-26T15:51:29.509Z,25.80
2022-10-26T15:53:36.337Z,25.80
2022-10-26T15:55:42.794Z,25.80
2022-10-26T15:57:49.596Z,25.80
2022-10-26T15:59:56.234Z,25.80
2022-10-26T16:02:02.818Z,25.90
2022-10-26T16:04:09.564Z,25.90
2022-10-26T16:06:19.312Z,25.90
2022-10-26T16:08:29.612Z,25.90
2022-10-26T16:10:36.927Z,25.90
2022-10-26T16:12:43.485Z,26.00
2022-10-26T16:15:06.425Z,26.00
2022-10-26T16:17:13.126Z,26.00
2022-10-26T16:19:30.336Z,26.00
2022-10-26T16:21:37.796Z,26.00
2022-10-26T16:23:49.105Z,26.00
2022-10-26T16:25:55.526Z,26.00
2022-10-26T16:28:02.432Z,26.00
2022-10-26T16:30:09.883Z,26.00
2022-10-26T16:32:16.539Z,26.00
2022-10-26T16:34:23.057Z,26.00
2022-10-26T16:36:29.554Z,25.90
2022-10-26T16:38:36.895Z,25.90
2022-10-26T16:40:46.029Z,25.90
2022-10-26T16:42:52.764Z,25.90
2022-10-26T16:45:02.613Z,25.90
2022-10-26T16:47:09.671Z,25.90
2022-10-26T16:49:16.365Z,25.90
2022-10-26T16:51:23.956Z,25.90
2022-10-26T16:53:30.786Z,25.90
2022-10-26T16:55:37.300Z,25.90
2022-10-26T16:57:45.634Z,25.90
2022-10-26T16:59:52.075Z,25.80
2022-10-26T17:01:59.411Z,25.80
2022-10-26T17:04:06.274Z,25.80
2022-10-26T17:06:12.778Z,25.80
2022-10-26T17:08:19.509Z,25.80
2022-10-26T17:10:26.695Z,25.80
2022-10-26T17:12:33.957Z,25.90
2022-10-26T17:14:42.125Z,25.80
2022-10-26T17:16:48.850Z,25.80
2022-10-26T17:18:56.297Z,25.80
2022-10-26T17:21:03.443Z,25.80
2022-10-26T17:23:10.065Z,25.80
2022-10-26T17:25:16.819Z,25.80
2022-10-26T17:27:24.041Z,25.80
2022-10-26T17:29:30.808Z,25.80
2022-10-26T17:31:40.026Z,25.80
2022-10-26T17:33:51.141Z,25.80
2022-10-26T17:35:58.628Z,25.80
2022-10-26T17:38:05.153Z,25.80
2022-10-26T17:40:12.538Z,25.80
2022-10-26T17:42:19.032Z,25.80
2022-10-26T17:44:25.511Z,25.80
2022-10-26T17:46:32.028Z,25.80
2022-10-26T17:48:40.214Z,25.80
2022-10-26T17:50:46.939Z,25.80
2022-10-26T17:52:53.404Z,25.80
2022-10-26T17:55:01.900Z,25.80
2022-10-26T17:57:09.349Z,25.70
2022-10-26T17:59:16.011Z,25.80
2022-10-26T18:01:22.519Z,25.80
2022-10-26T18:03:29.054Z,25.80
2022-10-26T18:05:37.210Z,25.80
2022-10-26T18:07:44.032Z,25.80
2022-10-26T18:09:50.956Z,25.70
2022-10-26T18:11:57.531Z,25.70
2022-10-26T18:14:03.936Z,25.70
2022-10-26T18:16:12.611Z,25.70
2022-10-26T18:18:19.129Z,25.70
2022-10-26T18:20:26.004Z,25.70
2022-10-26T18:22:34.067Z,25.60
2022-10-26T18:24:40.609Z,25.60
2022-10-26T18:26:47.039Z,25.60
2022-10-26T18:28:53.507Z,25.60
2022-10-26T18:31:05.042Z,25.50
2022-10-26T18:33:14.475Z,25.50
2022-10-26T18:35:21.581Z,25.50
2022-10-26T18:37:28.857Z,25.60
2022-10-26T18:39:37.160Z,25.60
2022-10-26T18:41:43.903Z,25.60
2022-10-26T18:43:51.968Z,25.60
2022-10-26T18:46:07.125Z,25.60
2022-10-26T18:48:13.565Z,25.50
2022-10-26T18:50:20.391Z,25.50
2022-10-26T18:52:28.175Z,25.50
2022-10-26T18:54:36.699Z,25.50
2022-10-26T18:56:43.232Z,25.50
2022-10-26T18:58:51.872Z,25.50
2022-10-26T19:01:07.426Z,25.50
2022-10-26T19:03:14.373Z,25.50
2022-10-26T19:05:20.894Z,25.50
2022-10-26T19:07:27.768Z,25.50
2022-10-26T19:09:35.852Z,25.50
2022-10-26T19:11:43.204Z,25.50
2022-10-26T19:13:51.159Z,25.50
2022-10-26T19:16:07.196Z,25.50
2022-10-26T19:18:19.141Z,25.60
2022-10-26T19:20:25.630Z,25.60
2022-10-26T19:22:32.085Z,25.50
2022-10-26T19:24:40.229Z,25.60
2022-10-26T19:26:47.188Z,25.60
2022-10-26T19:28:58.395Z,25.50
2022-10-26T19:31:07.709Z,25.50
2022-10-26T19:33:14.186Z,25.50
2022-10-26T19:35:21.072Z,25.50
2022-10-26T19:37:28.533Z,25.50
2022-10-26T19:39:35.095Z,25.50
2022-10-26T19:41:43.271Z,25.50
2022-10-26T19:43:49.818Z,25.40
2022-10-26T19:45:56.506Z,25.40
2022-10-26T19:48:02.966Z,25.40
2022-10-26T19:50:10.434Z,25.30
2022-10-26T19:52:19.752Z,25.40
2022-10-26T19:54:26.504Z,25.40
2022-10-26T19:56:32.960Z,25.30
2022-10-26T19:58:41.334Z,25.30
2022-10-26T20:00:47.856Z,25.30
2022-10-26T20:02:54.699Z,25.40
2022-10-26T20:05:01.186Z,25.30
2022-10-26T20:07:08.209Z,25.20
2022-10-26T20:09:14.778Z,25.20
2022-10-26T20:11:21.897Z,25.20
2022-10-26T20:13:28.399Z,25.20
2022-10-26T20:15:37.168Z,25.20
2022-10-26T20:17:43.656Z,25.20
2022-10-26T20:19:50.331Z,25.20
2022-10-26T20:21:56.763Z,25.10
2022-10-26T20:24:05.615Z,25.10
2022-10-26T20:26:18.979Z,25.10
2022-10-26T20:28:26.987Z,25.00
2022-10-26T20:30:33.477Z,25.10
2022-10-26T20:32:42.097Z,25.10
2022-10-26T20:34:48.685Z,25.10
2022-10-26T20:36:55.428Z,25.10
2022-10-26T20:39:02.487Z,25.10
2022-10-26T20:41:12.719Z,25.10
2022-10-26T20:43:21.204Z,25.00
2022-10-26T20:45:30.997Z,24.90
2022-10-26T20:47:38.146Z,24.90
2022-10-26T20:49:47.069Z,24.90
2022-10-26T20:52:20.041Z,24.90
2022-10-26T20:54:32.148Z,24.90
2022-10-26T20:56:42.326Z,24.90
2022-10-26T20:58:50.278Z,24.90
2022-10-26T21:00:59.507Z,25.00
2022-10-26T21:03:05.951Z,24.90
2022-10-26T21:05:14.123Z,24.90
2022-10-26T21:07:20.582Z,24.80
2022-10-26T21:09:27.645Z,24.80
2022-10-26T21:11:35.812Z,24.80
2022-10-26T21:13:42.269Z,24.80
2022-10-26T21:15:48.877Z,24.80
2022-10-26T21:17:55.357Z,24.80
2022-10-26T21:20:01.812Z,24.80
2022-10-26T21:22:09.895Z,24.80
2022-10-26T21:24:16.665Z,24.80
2022-10-26T21:26:23.141Z,24.80
2022-10-26T21:28:30.098Z,24.80
2022-10-26T21:30:36.644Z,24.80
2022-10-26T21:32:43.503Z,24.80
2022-10-26T21:34:49.995Z,24.80
2022-10-26T21:36:56.794Z,24.80
2022-10-26T21:39:04.939Z,24.80
2022-10-26T21:41:13.523Z,24.80
2022-10-26T21:43:19.997Z,24.80
2022-10-26T21:45:26.726Z,24.80
2022-10-26T21:47:33.171Z,24.80
2022-10-26T21:51:51.023Z,24.80
2022-10-26T21:53:58.918Z,24.80
2022-10-26T21:56:08.818Z,24.90
2022-10-26T21:58:15.357Z,24.90
2022-10-26T22:00:22.276Z,24.90
2022-10-26T22:02:28.895Z,24.90
2022-10-26T22:04:35.575Z,24.90
2022-10-26T22:06:42.045Z,24.90
2022-10-26T22:08:49.139Z,24.90
2022-10-26T22:10:55.664Z,24.90
2022-10-26T22:13:04.377Z,24.90
2022-10-26T22:15:11.801Z,24.90
2022-10-26T22:17:18.447Z,24.90
2022-10-26T22:19:24.878Z,24.90
2022-10-26T22:21:35.739Z,24.90
2022-10-26T22:23:43.843Z,24.90
2022-10-26T22:25:50.273Z,24.90
2022-10-26T22:27:56.782Z,24.80
2022-10-26T22:30:04.929Z,24.80
2022-10-26T22:32:11.636Z,24.80
2022-10-26T22:34:19.172Z,24.80
2022-10-26T22:36:26.251Z,24.80
2022-10-26T22:38:32.686Z,24.80
2022-10-26T22:40:39.143Z,24.80
2022-10-26T22:42:45.618Z,24.80
2022-10-26T22:44:52.085Z,24.80
2022-10-26T22:47:01.773Z,24.80
2022-10-26T22:49:08.316Z,24.80
2022-10-26T22:51:17.125Z,24.80
2022-10-26T22:53:23.577Z,24.80
2022-10-26T22:55:30.037Z,24.80
2022-10-26T22:57:36.485Z,24.80
2022-10-26T22:59:42.986Z,24.90
2022-10-26T23:01:49.660Z,24.80
2022-10-26T23:03:58.186Z,24.80
2022-10-26T23:06:05.267Z,24.80
2022-10-26T23:08:11.737Z,24.80
2022-10-26T23:10:18.381Z,24.80
2022-10-26T23:12:24.824Z,24.80
2022-10-26T23:14:31.375Z,24.80
2022-10-26T23:16:37.795Z,24.80
2022-10-26T23:18:45.142Z,24.80
2022-10-26T23:20:54.362Z,24.80
2022-10-26T23:23:01.089Z,24.80
2022-10-26T23:25:07.924Z,24.80
2022-10-26T23:27:14.590Z,24.80
2022-10-26T23:29:21.056Z,24.80
2022-10-26T23:31:31.600Z,24.80
2022-10-26T23:33:38.050Z,24.80
2022-10-26T23:35:45.073Z,24.80
2022-10-26T23:37:53.236Z,24.90
2022-10-26T23:40:00.412Z,24.90
2022-10-26T23:42:07.186Z,24.90
2022-10-26T23:44:13.992Z,24.90
2022-10-26T23:46:20.459Z,24.90
2022-10-26T23:48:27.238Z,25.00
2022-10-26T23:50:33.671Z,25.00
2022-10-26T23:52:40.423Z,25.00
2022-10-26T23:56:56.012Z,25.00
2022-10-26T23:59:06.772Z,25.00
